createdAt,value
2019-01-02T00:28:32.373Z,1023.16
2019-01-02T00:28:32.940Z,1023.13
2019-01-02T00:28:33.539Z,1023.15
2019-01-02T00:28:34.139Z,1023.18
2019-01-02T00:28:34.739Z,1023.15
2019-01-02T00:28:35.340Z,1023.11
2019-01-02T00:28:35.938Z,1023.16
2019-01-02T00:28:36.538Z,1023.18
2019-01-02T00:29:31.018Z,1023.08
2019-01-02T00:29:31.616Z,1023.06
2019-01-02T00:29:32.215Z,1023.06
2019-01-02T00:29:32.814Z,1023.11
2019-01-02T00:29:33.414Z,1023.09
2019-01-02T00:29:34.015Z,1023.10
2019-01-02T00:29:34.615Z,1023.08
2019-01-02T00:29:35.214Z,1023.11
2019-01-02T00:30:29.694Z,1023.11
2019-01-02T00:30:30.292Z,1023.10
2019-01-02T00:30:30.891Z,1023.10
2019-01-02T00:30:31.491Z,1023.11
2019-01-02T00:30:32.091Z,1023.14
2019-01-02T00:30:32.694Z,1023.15
2019-01-02T00:30:33.289Z,1023.14
2019-01-02T00:30:33.893Z,1023.15
2019-01-02T00:31:27.372Z,1023.14
2019-01-02T00:31:27.945Z,1023.15
2019-01-02T00:31:28.548Z,1023.12
2019-01-02T00:31:29.145Z,1023.13
2019-01-02T00:31:29.744Z,1023.16
2019-01-02T00:31:30.344Z,1023.13
2019-01-02T00:31:30.943Z,1023.15
2019-01-02T00:31:31.546Z,1023.15
2019-01-02T00:32:26.022Z,1023.12
2019-01-02T00:32:26.621Z,1023.10
2019-01-02T00:32:27.220Z,1023.12
2019-01-02T00:32:27.820Z,1023.18
2019-01-02T00:32:28.422Z,1023.18
2019-01-02T00:32:29.021Z,1023.14
2019-01-02T00:32:29.621Z,1023.13
2019-01-02T00:32:30.220Z,1023.14
2019-01-02T00:33:23.677Z,1023.17
2019-01-02T00:33:24.277Z,1023.13
2019-01-02T00:33:24.875Z,1023.14
2019-01-02T00:33:25.475Z,1023.11
2019-01-02T00:33:26.074Z,1023.11
2019-01-02T00:33:26.674Z,1023.15
2019-01-02T00:33:27.271Z,1023.10
2019-01-02T00:33:27.873Z,1023.14
2019-01-02T00:34:21.327Z,1023.20
2019-01-02T00:34:21.924Z,1023.21
2019-01-02T00:34:22.525Z,1023.21
2019-01-02T00:34:23.127Z,1023.18
2019-01-02T00:34:23.731Z,1023.19
2019-01-02T00:34:24.326Z,1023.21
2019-01-02T00:34:24.926Z,1023.23
2019-01-02T00:34:25.524Z,1023.19
2019-01-02T00:35:20.005Z,1023.20
2019-01-02T00:35:20.601Z,1023.19
2019-01-02T00:35:21.200Z,1023.23
2019-01-02T00:35:21.801Z,1023.21
2019-01-02T00:35:22.402Z,1023.20
2019-01-02T00:35:23.000Z,1023.18
2019-01-02T00:35:23.600Z,1023.20
2019-01-02T00:35:24.200Z,1023.20
2019-01-02T00:36:17.679Z,1023.17
2019-01-02T00:36:18.254Z,1023.13
2019-01-02T00:36:18.853Z,1023.13
2019-01-02T00:36:19.453Z,1023.12
2019-01-02T00:36:20.052Z,1023.15
2019-01-02T00:36:20.654Z,1023.12
2019-01-02T00:36:21.251Z,1023.14
2019-01-02T00:36:21.853Z,1023.17
2019-01-02T00:37:15.332Z,1023.27
2019-01-02T00:37:15.910Z,1023.26
2019-01-02T00:37:16.504Z,1023.27
2019-01-02T00:37:17.105Z,1023.25
2019-01-02T00:37:17.704Z,1023.28
2019-01-02T00:37:18.304Z,1023.26
2019-01-02T00:37:18.904Z,1023.25
2019-01-02T00:37:19.505Z,1023.29
2019-01-02T00:38:12.989Z,1023.23
2019-01-02T00:38:13.558Z,1023.20
2019-01-02T00:38:14.157Z,1023.22
2019-01-02T00:38:14.756Z,1023.25
2019-01-02T00:38:15.356Z,1023.21
2019-01-02T00:38:15.958Z,1023.22
2019-01-02T00:38:16.556Z,1023.27
2019-01-02T00:38:17.157Z,1023.24
2019-01-02T00:39:10.611Z,1023.29
2019-01-02T00:39:11.212Z,1023.31
2019-01-02T00:39:11.808Z,1023.32
2019-01-02T00:39:12.410Z,1023.30
2019-01-02T00:39:13.010Z,1023.28
2019-01-02T00:39:13.613Z,1023.33
2019-01-02T00:39:14.209Z,1023.30
2019-01-02T00:39:14.808Z,1023.30
2019-01-02T00:40:09.286Z,1023.25
2019-01-02T00:40:09.888Z,1023.24
2019-01-02T00:40:10.485Z,1023.25
2019-01-02T00:40:11.083Z,1023.25
2019-01-02T00:40:11.683Z,1023.25
2019-01-02T00:40:12.283Z,1023.26
2019-01-02T00:40:12.884Z,1023.28
2019-01-02T00:40:13.483Z,1023.27
2019-01-02T00:41:07.963Z,1023.28
2019-01-02T00:41:08.559Z,1023.25
2019-01-02T00:41:09.160Z,1023.25
2019-01-02T00:41:09.759Z,1023.26
2019-01-02T00:41:10.358Z,1023.29
2019-01-02T00:41:10.959Z,1023.28
2019-01-02T00:41:11.558Z,1023.25
2019-01-02T00:41:12.161Z,1023.28
2019-01-02T00:42:05.641Z,1023.30
2019-01-02T00:42:06.214Z,1023.27
2019-01-02T00:42:06.813Z,1023.28
2019-01-02T00:42:07.413Z,1023.27
2019-01-02T00:42:08.012Z,1023.26
2019-01-02T00:42:08.622Z,1023.27
2019-01-02T00:42:09.209Z,1023.32
2019-01-02T00:42:09.811Z,1023.31
2019-01-02T00:43:04.291Z,1023.22
2019-01-02T00:43:04.889Z,1023.18
2019-01-02T00:43:05.488Z,1023.21
2019-01-02T00:43:06.087Z,1023.21
2019-01-02T00:43:06.688Z,1023.25
2019-01-02T00:43:07.288Z,1023.20
2019-01-02T00:43:07.886Z,1023.26
2019-01-02T00:43:08.488Z,1023.25
2019-01-02T00:44:02.965Z,1023.36
2019-01-02T00:44:03.564Z,1023.38
2019-01-02T00:44:04.162Z,1023.43
2019-01-02T00:44:04.763Z,1023.39
2019-01-02T00:44:05.365Z,1023.43
2019-01-02T00:44:05.961Z,1023.45
2019-01-02T00:44:06.562Z,1023.44
2019-01-02T00:44:07.163Z,1023.50
2019-01-02T00:45:01.644Z,1023.35
2019-01-02T00:45:02.238Z,1023.38
2019-01-02T00:45:02.839Z,1023.34
2019-01-02T00:45:03.439Z,1023.34
2019-01-02T00:45:04.037Z,1023.33
2019-01-02T00:45:04.642Z,1023.38
2019-01-02T00:45:05.241Z,1023.42
2019-01-02T00:45:05.837Z,1023.40
2019-01-02T00:45:59.297Z,1023.28
2019-01-02T00:45:59.891Z,1023.26
2019-01-02T00:46:00.491Z,1023.26
2019-01-02T00:46:01.091Z,1023.28
2019-01-02T00:46:01.695Z,1023.28
2019-01-02T00:46:02.290Z,1023.28
2019-01-02T00:46:02.890Z,1023.31
2019-01-02T00:46:03.491Z,1023.30
2019-01-02T00:46:56.970Z,1023.39
2019-01-02T00:46:57.544Z,1023.37
2019-01-02T00:46:58.145Z,1023.39
2019-01-02T00:46:58.744Z,1023.43
2019-01-02T00:46:59.343Z,1023.42
2019-01-02T00:46:59.942Z,1023.43
2019-01-02T00:47:00.546Z,1023.48
2019-01-02T00:47:01.142Z,1023.45
2019-01-02T00:47:54.598Z,1023.40
2019-01-02T00:47:55.194Z,1023.37
2019-01-02T00:47:55.796Z,1023.42
2019-01-02T00:47:56.394Z,1023.38
2019-01-02T00:47:56.994Z,1023.41
2019-01-02T00:47:57.593Z,1023.37
2019-01-02T00:47:58.196Z,1023.38
2019-01-02T00:47:58.794Z,1023.36
2019-01-02T00:48:52.249Z,1023.44
2019-01-02T00:48:52.848Z,1023.45
2019-01-02T00:48:53.446Z,1023.46
2019-01-02T00:48:54.048Z,1023.46
2019-01-02T00:48:54.647Z,1023.44
2019-01-02T00:48:55.245Z,1023.48
2019-01-02T00:48:55.847Z,1023.48
2019-01-02T00:48:56.445Z,1023.49
2019-01-02T00:49:49.902Z,1023.40
2019-01-02T00:49:50.498Z,1023.43
2019-01-02T00:49:51.098Z,1023.42
2019-01-02T00:49:51.698Z,1023.39
2019-01-02T00:49:52.298Z,1023.40
2019-01-02T00:49:52.900Z,1023.40
2019-01-02T00:49:53.499Z,1023.38
2019-01-02T00:49:54.098Z,1023.42
2019-01-02T00:50:47.552Z,1023.35
2019-01-02T00:50:48.150Z,1023.33
2019-01-02T00:50:48.750Z,1023.38
2019-01-02T00:50:49.351Z,1023.38
2019-01-02T00:50:49.963Z,1023.38
2019-01-02T00:50:50.550Z,1023.36
2019-01-02T00:50:51.148Z,1023.31
2019-01-02T00:50:51.750Z,1023.30
2019-01-02T00:51:46.252Z,1023.36
2019-01-02T00:51:46.826Z,1023.39
2019-01-02T00:51:47.427Z,1023.39
2019-01-02T00:51:48.025Z,1023.40
2019-01-02T00:51:48.625Z,1023.42
2019-01-02T00:51:49.227Z,1023.41
2019-01-02T00:51:49.824Z,1023.38
2019-01-02T00:51:50.424Z,1023.42
2019-01-02T00:52:43.904Z,1023.42
2019-01-02T00:52:44.477Z,1023.38
2019-01-02T00:52:45.078Z,1023.41
2019-01-02T00:52:45.676Z,1023.41
2019-01-02T00:52:46.277Z,1023.41
2019-01-02T00:52:46.876Z,1023.44
2019-01-02T00:52:47.477Z,1023.40
2019-01-02T00:52:48.080Z,1023.41
2019-01-02T00:53:42.581Z,1023.48
2019-01-02T00:53:43.151Z,1023.56
2019-01-02T00:53:43.753Z,1023.54
2019-01-02T00:53:44.351Z,1023.51
2019-01-02T00:53:44.951Z,1023.53
2019-01-02T00:53:45.552Z,1023.52
2019-01-02T00:53:46.154Z,1023.54
2019-01-02T00:53:46.752Z,1023.57
2019-01-02T00:54:41.231Z,1023.56
2019-01-02T00:54:41.828Z,1023.53
2019-01-02T00:54:42.427Z,1023.55
2019-01-02T00:54:43.027Z,1023.55
2019-01-02T00:54:43.629Z,1023.54
2019-01-02T00:54:44.230Z,1023.51
2019-01-02T00:54:44.827Z,1023.53
2019-01-02T00:54:45.431Z,1023.59
2019-01-02T00:55:39.908Z,1023.66
2019-01-02T00:55:40.503Z,1023.61
2019-01-02T00:55:41.102Z,1023.58
2019-01-02T00:55:41.703Z,1023.55
2019-01-02T00:55:42.302Z,1023.56
2019-01-02T00:55:42.903Z,1023.55
2019-01-02T00:55:43.504Z,1023.55
2019-01-02T00:55:44.101Z,1023.61
2019-01-02T00:56:37.560Z,1023.47
2019-01-02T00:56:38.158Z,1023.46
2019-01-02T00:56:38.761Z,1023.48
2019-01-02T00:56:39.355Z,1023.47
2019-01-02T00:56:39.955Z,1023.47
2019-01-02T00:56:40.557Z,1023.42
2019-01-02T00:56:41.155Z,1023.50
2019-01-02T00:56:41.756Z,1023.50
2019-01-02T00:57:35.233Z,1023.63
2019-01-02T00:57:35.807Z,1023.60
2019-01-02T00:57:36.407Z,1023.61
2019-01-02T00:57:37.007Z,1023.58
2019-01-02T00:57:37.609Z,1023.54
2019-01-02T00:57:38.208Z,1023.55
2019-01-02T00:57:38.806Z,1023.57
2019-01-02T00:57:39.410Z,1023.61
2019-01-02T00:58:33.908Z,1023.60
2019-01-02T00:58:34.488Z,1023.61
2019-01-02T00:58:35.084Z,1023.60
2019-01-02T00:58:35.683Z,1023.60
2019-01-02T00:58:36.284Z,1023.64
2019-01-02T00:58:36.883Z,1023.58
2019-01-02T00:58:37.482Z,1023.58
2019-01-02T00:58:38.086Z,1023.54
2019-01-02T00:59:31.562Z,1023.64
2019-01-02T00:59:32.136Z,1023.64
2019-01-02T00:59:32.736Z,1023.67
2019-01-02T00:59:33.336Z,1023.67
2019-01-02T00:59:33.936Z,1023.64
2019-01-02T00:59:34.535Z,1023.64
2019-01-02T00:59:35.134Z,1023.69
2019-01-02T00:59:35.734Z,1023.67
2019-01-02T01:00:30.236Z,1023.63
2019-01-02T01:00:30.810Z,1023.58
2019-01-02T01:00:31.411Z,1023.63
2019-01-02T01:00:32.010Z,1023.65
2019-01-02T01:00:32.610Z,1023.61
2019-01-02T01:00:33.207Z,1023.59
2019-01-02T01:00:33.808Z,1023.60
2019-01-02T01:00:34.409Z,1023.61
2019-01-02T01:01:27.888Z,1023.88
2019-01-02T01:01:28.462Z,1023.87
2019-01-02T01:01:29.063Z,1023.87
2019-01-02T01:01:29.662Z,1023.96
2019-01-02T01:01:30.263Z,1024.02
2019-01-02T01:01:30.862Z,1024.00
2019-01-02T01:01:31.463Z,1023.91
2019-01-02T01:01:32.062Z,1023.86
2019-01-02T01:02:25.549Z,1023.68
2019-01-02T01:02:26.114Z,1023.70
2019-01-02T01:02:26.715Z,1023.73
2019-01-02T01:02:27.314Z,1023.72
2019-01-02T01:02:27.914Z,1023.69
2019-01-02T01:02:28.514Z,1023.68
2019-01-02T01:02:29.113Z,1023.69
2019-01-02T01:02:29.715Z,1023.69
2019-01-02T01:03:24.217Z,1023.69
2019-01-02T01:03:24.790Z,1023.73
2019-01-02T01:03:25.389Z,1023.75
2019-01-02T01:03:25.990Z,1023.70
2019-01-02T01:03:26.589Z,1023.73
2019-01-02T01:03:27.188Z,1023.73
2019-01-02T01:03:27.788Z,1023.74
2019-01-02T01:03:28.389Z,1023.74
2019-01-02T01:04:21.870Z,1023.71
2019-01-02T01:04:22.442Z,1023.71
2019-01-02T01:04:23.043Z,1023.66
2019-01-02T01:04:23.644Z,1023.73
2019-01-02T01:04:24.241Z,1023.68
2019-01-02T01:04:24.842Z,1023.72
2019-01-02T01:04:25.441Z,1023.71
2019-01-02T01:04:26.041Z,1023.66
2019-01-02T01:05:19.520Z,1023.64
2019-01-02T01:05:20.092Z,1023.64
2019-01-02T01:05:20.693Z,1023.64
2019-01-02T01:05:21.292Z,1023.66
2019-01-02T01:05:21.892Z,1023.60
2019-01-02T01:05:22.495Z,1023.65
2019-01-02T01:05:23.091Z,1023.68
2019-01-02T01:05:23.690Z,1023.68
2019-01-02T01:06:17.173Z,1023.70
2019-01-02T01:06:17.746Z,1023.68
2019-01-02T01:06:18.347Z,1023.69
2019-01-02T01:06:18.945Z,1023.65
2019-01-02T01:06:19.548Z,1023.66
2019-01-02T01:06:20.144Z,1023.62
2019-01-02T01:06:20.747Z,1023.62
2019-01-02T01:06:21.344Z,1023.64
2019-01-02T01:07:14.825Z,1023.87
2019-01-02T01:07:15.397Z,1023.85
2019-01-02T01:07:16.001Z,1023.81
2019-01-02T01:07:16.595Z,1023.78
2019-01-02T01:07:17.196Z,1023.77
2019-01-02T01:07:17.795Z,1023.79
2019-01-02T01:07:18.395Z,1023.80
2019-01-02T01:07:18.997Z,1023.80
2019-01-02T01:08:12.477Z,1023.70
2019-01-02T01:08:13.048Z,1023.73
2019-01-02T01:08:13.650Z,1023.74
2019-01-02T01:08:14.248Z,1023.79
2019-01-02T01:08:14.848Z,1023.77
2019-01-02T01:08:15.449Z,1023.81
2019-01-02T01:08:16.047Z,1023.77
2019-01-02T01:08:16.652Z,1023.74
2019-01-02T01:09:11.151Z,1023.91
2019-01-02T01:09:11.725Z,1023.88
2019-01-02T01:09:12.325Z,1023.87
2019-01-02T01:09:12.923Z,1023.83
2019-01-02T01:09:13.524Z,1023.93
2019-01-02T01:09:14.125Z,1023.92
2019-01-02T01:09:14.726Z,1024.03
2019-01-02T01:09:15.322Z,1023.99
2019-01-02T01:10:08.805Z,1023.77
2019-01-02T01:10:09.376Z,1023.64
2019-01-02T01:10:09.975Z,1023.74
2019-01-02T01:10:10.575Z,1023.71
2019-01-02T01:10:11.226Z,1023.77
2019-01-02T01:10:11.776Z,1023.83
2019-01-02T01:10:12.375Z,1023.83
2019-01-02T01:10:12.975Z,1023.83
2019-01-02T01:11:07.481Z,1023.80
2019-01-02T01:11:08.050Z,1023.78
2019-01-02T01:11:08.652Z,1023.85
2019-01-02T01:11:09.250Z,1023.85
2019-01-02T01:11:09.850Z,1023.89
2019-01-02T01:11:10.450Z,1023.91
2019-01-02T01:11:11.050Z,1023.95
2019-01-02T01:11:11.652Z,1023.91
2019-01-02T01:12:06.158Z,1023.89
2019-01-02T01:12:06.725Z,1023.86
2019-01-02T01:12:07.327Z,1023.81
2019-01-02T01:12:07.927Z,1023.92
2019-01-02T01:12:08.526Z,1023.87
2019-01-02T01:12:09.130Z,1023.91
2019-01-02T01:12:09.726Z,1023.89
2019-01-02T01:12:10.326Z,1023.93
2019-01-02T01:13:04.831Z,1023.81
2019-01-02T01:13:05.402Z,1023.78
2019-01-02T01:13:06.006Z,1023.82
2019-01-02T01:13:06.601Z,1023.80
2019-01-02T01:13:07.201Z,1023.82
2019-01-02T01:13:07.802Z,1023.80
2019-01-02T01:13:08.402Z,1023.83
2019-01-02T01:13:09.001Z,1023.83
2019-01-02T01:14:03.504Z,1023.97
2019-01-02T01:14:04.078Z,1023.95
2019-01-02T01:14:04.690Z,1023.97
2019-01-02T01:14:05.277Z,1023.98
2019-01-02T01:14:05.878Z,1024.00
2019-01-02T01:14:06.480Z,1023.99
2019-01-02T01:14:07.076Z,1023.99
2019-01-02T01:14:07.676Z,1023.98
2019-01-02T01:15:01.157Z,1023.87
2019-01-02T01:15:01.730Z,1023.80
2019-01-02T01:15:02.331Z,1023.78
2019-01-02T01:15:02.930Z,1023.84
2019-01-02T01:15:03.530Z,1023.83
2019-01-02T01:15:04.129Z,1023.84
2019-01-02T01:15:04.730Z,1023.82
2019-01-02T01:15:05.330Z,1023.83
2019-01-02T01:15:59.833Z,1023.84
2019-01-02T01:16:00.406Z,1023.85
2019-01-02T01:16:01.009Z,1023.85
2019-01-02T01:16:01.609Z,1023.80
2019-01-02T01:16:02.207Z,1023.83
2019-01-02T01:16:02.805Z,1023.79
2019-01-02T01:16:03.406Z,1023.77
2019-01-02T01:16:04.006Z,1023.76
2019-01-02T01:16:57.483Z,1023.88
2019-01-02T01:16:58.057Z,1023.86
2019-01-02T01:16:58.657Z,1023.86
2019-01-02T01:16:59.257Z,1023.89
2019-01-02T01:16:59.870Z,1023.87
2019-01-02T01:17:00.460Z,1023.86
2019-01-02T01:17:01.057Z,1023.85
2019-01-02T01:17:01.658Z,1023.87
2019-01-02T01:17:55.136Z,1023.79
2019-01-02T01:17:55.708Z,1023.81
2019-01-02T01:17:56.309Z,1023.82
2019-01-02T01:17:56.908Z,1023.84
2019-01-02T01:17:57.508Z,1023.83
2019-01-02T01:17:58.108Z,1023.85
2019-01-02T01:17:58.711Z,1023.85
2019-01-02T01:17:59.309Z,1023.82
2019-01-02T01:18:53.810Z,1023.87
2019-01-02T01:18:54.384Z,1023.85
2019-01-02T01:18:54.983Z,1023.85
2019-01-02T01:18:55.583Z,1023.84
2019-01-02T01:18:56.183Z,1023.84
2019-01-02T01:18:56.785Z,1023.83
2019-01-02T01:18:57.382Z,1023.82
2019-01-02T01:18:57.983Z,1023.83
2019-01-02T01:19:52.488Z,1023.93
2019-01-02T01:19:53.060Z,1023.94
2019-01-02T01:19:53.659Z,1023.89
2019-01-02T01:19:54.259Z,1023.87
2019-01-02T01:19:54.859Z,1023.88
2019-01-02T01:19:55.460Z,1023.89
2019-01-02T01:19:56.061Z,1023.88
2019-01-02T01:19:56.659Z,1023.85
2019-01-02T01:20:51.162Z,1023.82
2019-01-02T01:20:51.736Z,1023.81
2019-01-02T01:20:52.335Z,1023.86
2019-01-02T01:20:52.935Z,1023.87
2019-01-02T01:20:53.535Z,1023.88
2019-01-02T01:20:54.135Z,1023.83
2019-01-02T01:20:54.734Z,1023.87
2019-01-02T01:20:55.334Z,1023.86
2019-01-02T01:21:49.838Z,1023.81
2019-01-02T01:21:50.410Z,1023.80
2019-01-02T01:21:51.011Z,1023.84
2019-01-02T01:21:51.611Z,1023.83
2019-01-02T01:21:52.211Z,1023.81
2019-01-02T01:21:52.810Z,1023.82
2019-01-02T01:21:53.415Z,1023.83
2019-01-02T01:21:54.012Z,1023.84
2019-01-02T01:22:47.492Z,1023.91
2019-01-02T01:22:48.064Z,1023.90
2019-01-02T01:22:48.664Z,1023.94
2019-01-02T01:22:49.264Z,1023.94
2019-01-02T01:22:49.863Z,1023.98
2019-01-02T01:22:50.467Z,1023.89
2019-01-02T01:22:51.064Z,1023.91
2019-01-02T01:22:51.662Z,1023.94
2019-01-02T01:23:45.143Z,1023.89
2019-01-02T01:23:45.716Z,1023.89
2019-01-02T01:23:46.314Z,1023.89
2019-01-02T01:23:46.914Z,1023.82
2019-01-02T01:23:47.515Z,1023.84
2019-01-02T01:23:48.118Z,1023.84
2019-01-02T01:23:48.714Z,1023.84
2019-01-02T01:23:49.314Z,1023.84
2019-01-02T01:24:42.795Z,1023.90
2019-01-02T01:24:43.368Z,1023.89
2019-01-02T01:24:43.968Z,1023.93
2019-01-02T01:24:44.567Z,1023.90
2019-01-02T01:24:45.168Z,1023.92
2019-01-02T01:24:45.768Z,1023.87
2019-01-02T01:24:46.366Z,1023.88
2019-01-02T01:24:46.966Z,1023.89
2019-01-02T01:25:41.472Z,1023.93
2019-01-02T01:25:42.041Z,1023.93
2019-01-02T01:25:42.641Z,1023.98
2019-01-02T01:25:43.242Z,1023.96
2019-01-02T01:25:43.841Z,1023.97
2019-01-02T01:25:44.442Z,1024.00
2019-01-02T01:25:45.046Z,1023.99
2019-01-02T01:25:45.641Z,1024.00
2019-01-02T01:26:39.121Z,1023.95
2019-01-02T01:26:39.695Z,1023.93
2019-01-02T01:26:40.294Z,1023.90
2019-01-02T01:26:40.893Z,1023.90
2019-01-02T01:26:41.494Z,1023.92
2019-01-02T01:26:42.095Z,1023.92
2019-01-02T01:26:42.695Z,1023.91
2019-01-02T01:26:43.294Z,1023.94
2019-01-02T01:27:37.797Z,1024.04
2019-01-02T01:27:38.369Z,1024.03
2019-01-02T01:27:38.971Z,1024.08
2019-01-02T01:27:39.570Z,1024.09
2019-01-02T01:27:40.172Z,1024.14
2019-01-02T01:27:40.773Z,1024.09
2019-01-02T01:27:41.369Z,1024.06
2019-01-02T01:27:41.968Z,1024.03
2019-01-02T01:28:36.474Z,1024.02
2019-01-02T01:28:37.047Z,1024.02
2019-01-02T01:28:37.645Z,1024.03
2019-01-02T01:28:38.245Z,1024.01
2019-01-02T01:28:38.845Z,1024.00
2019-01-02T01:28:39.445Z,1024.04
2019-01-02T01:28:40.044Z,1024.00
2019-01-02T01:28:40.646Z,1024.03
2019-01-02T01:29:34.125Z,1023.95
2019-01-02T01:29:34.699Z,1023.97
2019-01-02T01:29:35.297Z,1023.95
2019-01-02T01:29:35.897Z,1023.99
2019-01-02T01:29:36.497Z,1023.98
2019-01-02T01:29:37.097Z,1023.99
2019-01-02T01:29:37.697Z,1024.00
2019-01-02T01:29:38.297Z,1023.99
2019-01-02T01:30:32.799Z,1024.07
2019-01-02T01:30:33.371Z,1024.04
2019-01-02T01:30:33.972Z,1024.06
2019-01-02T01:30:34.572Z,1024.07
2019-01-02T01:30:35.171Z,1024.07
2019-01-02T01:30:35.772Z,1024.07
2019-01-02T01:30:36.372Z,1024.09
2019-01-02T01:30:36.971Z,1024.14
2019-01-02T01:31:31.477Z,1024.06
2019-01-02T01:31:32.050Z,1024.07
2019-01-02T01:31:32.650Z,1024.06
2019-01-02T01:31:33.247Z,1024.08
2019-01-02T01:31:33.851Z,1024.08
2019-01-02T01:31:34.450Z,1024.10
2019-01-02T01:31:35.045Z,1024.08
2019-01-02T01:31:35.646Z,1024.08
2019-01-02T01:32:30.150Z,1024.01
2019-01-02T01:32:30.723Z,1024.11
2019-01-02T01:32:31.357Z,1024.15
2019-01-02T01:32:31.923Z,1024.15
2019-01-02T01:32:32.523Z,1024.23
2019-01-02T01:32:33.123Z,1024.18
2019-01-02T01:32:33.723Z,1024.20
2019-01-02T01:32:34.323Z,1024.24
2019-01-02T01:33:27.805Z,1024.10
2019-01-02T01:33:28.376Z,1024.06
2019-01-02T01:33:28.977Z,1024.04
2019-01-02T01:33:29.575Z,1024.02
2019-01-02T01:33:30.176Z,1024.07
2019-01-02T01:33:30.777Z,1024.11
2019-01-02T01:33:31.375Z,1024.10
2019-01-02T01:33:31.975Z,1024.07
2019-01-02T01:34:25.456Z,1024.14
2019-01-02T01:34:26.029Z,1024.14
2019-01-02T01:34:26.628Z,1024.17
2019-01-02T01:34:27.230Z,1024.18
2019-01-02T01:34:27.829Z,1024.16
2019-01-02T01:34:28.429Z,1024.17
2019-01-02T01:34:29.028Z,1024.15
2019-01-02T01:34:29.628Z,1024.14
2019-01-02T01:35:24.131Z,1024.04
2019-01-02T01:35:24.702Z,1024.09
2019-01-02T01:35:25.304Z,1024.05
2019-01-02T01:35:25.903Z,1024.10
2019-01-02T01:35:26.502Z,1024.08
2019-01-02T01:35:27.103Z,1024.10
2019-01-02T01:35:27.703Z,1024.10
2019-01-02T01:35:28.301Z,1024.09
2019-01-02T01:36:22.783Z,1024.21
2019-01-02T01:36:23.379Z,1024.24
2019-01-02T01:36:23.997Z,1024.25
2019-01-02T01:36:24.578Z,1024.27
2019-01-02T01:36:25.180Z,1024.20
2019-01-02T01:36:25.778Z,1024.29
2019-01-02T01:36:26.377Z,1024.23
2019-01-02T01:36:26.978Z,1024.22
2019-01-02T01:37:20.458Z,1024.11
2019-01-02T01:37:21.031Z,1024.15
2019-01-02T01:37:21.633Z,1024.16
2019-01-02T01:37:22.238Z,1024.17
2019-01-02T01:37:22.835Z,1024.16
2019-01-02T01:37:23.433Z,1024.16
2019-01-02T01:37:24.031Z,1024.16
2019-01-02T01:37:24.631Z,1024.13
2019-01-02T01:38:30.809Z,1024.14
2019-01-02T01:38:31.380Z,1024.17
2019-01-02T01:38:31.981Z,1024.16
2019-01-02T01:38:32.581Z,1024.14
2019-01-02T01:38:33.179Z,1024.16
2019-01-02T01:38:33.778Z,1024.15
2019-01-02T01:38:34.381Z,1024.15
2019-01-02T01:38:34.979Z,1024.14
2019-01-02T01:39:28.459Z,1024.17
2019-01-02T01:39:29.032Z,1024.16
2019-01-02T01:39:29.634Z,1024.20
2019-01-02T01:39:30.233Z,1024.19
2019-01-02T01:39:30.831Z,1024.18
2019-01-02T01:39:31.433Z,1024.18
2019-01-02T01:39:32.031Z,1024.20
2019-01-02T01:39:32.631Z,1024.24
2019-01-02T01:40:27.135Z,1024.21
2019-01-02T01:40:27.707Z,1024.21
2019-01-02T01:40:28.308Z,1024.22
2019-01-02T01:40:28.907Z,1024.24
2019-01-02T01:40:29.506Z,1024.24
2019-01-02T01:40:30.106Z,1024.26
2019-01-02T01:40:30.706Z,1024.27
2019-01-02T01:40:31.306Z,1024.25
2019-01-02T01:41:24.790Z,1024.26
2019-01-02T01:41:25.360Z,1024.26
2019-01-02T01:41:25.961Z,1024.25
2019-01-02T01:41:26.560Z,1024.25
2019-01-02T01:41:27.159Z,1024.29
2019-01-02T01:41:27.760Z,1024.29
2019-01-02T01:41:28.359Z,1024.30
2019-01-02T01:41:28.958Z,1024.27
2019-01-02T01:42:22.445Z,1024.26
2019-01-02T01:42:23.011Z,1024.24
2019-01-02T01:42:23.613Z,1024.27
2019-01-02T01:42:24.212Z,1024.25
2019-01-02T01:42:24.811Z,1024.26
2019-01-02T01:42:25.413Z,1024.27
2019-01-02T01:42:26.011Z,1024.26
2019-01-02T01:42:26.617Z,1024.21
2019-01-02T01:43:20.089Z,1024.31
2019-01-02T01:43:20.663Z,1024.28
2019-01-02T01:43:21.262Z,1024.26
2019-01-02T01:43:21.862Z,1024.25
2019-01-02T01:43:22.462Z,1024.26
2019-01-02T01:43:23.062Z,1024.30
2019-01-02T01:43:23.662Z,1024.27
2019-01-02T01:43:24.262Z,1024.32
2019-01-02T01:44:17.743Z,1024.21
2019-01-02T01:44:18.316Z,1024.25
2019-01-02T01:44:18.915Z,1024.23
2019-01-02T01:44:19.523Z,1024.23
2019-01-02T01:44:20.114Z,1024.23
2019-01-02T01:44:20.716Z,1024.28
2019-01-02T01:44:21.314Z,1024.21
2019-01-02T01:44:21.915Z,1024.23
2019-01-02T01:45:16.417Z,1024.51
2019-01-02T01:45:16.990Z,1024.46
2019-01-02T01:45:17.590Z,1024.40
2019-01-02T01:45:18.189Z,1024.34
2019-01-02T01:45:18.789Z,1024.33
2019-01-02T01:45:19.389Z,1024.35
2019-01-02T01:45:19.989Z,1024.35
2019-01-02T01:45:20.588Z,1024.34
2019-01-02T01:46:15.092Z,1024.39
2019-01-02T01:46:15.667Z,1024.39
2019-01-02T01:46:16.266Z,1024.36
2019-01-02T01:46:16.866Z,1024.34
2019-01-02T01:46:17.466Z,1024.38
2019-01-02T01:46:18.065Z,1024.34
2019-01-02T01:46:18.665Z,1024.33
2019-01-02T01:46:19.265Z,1024.34
2019-01-02T01:47:13.768Z,1024.21
2019-01-02T01:47:14.342Z,1024.18
2019-01-02T01:47:14.941Z,1024.17
2019-01-02T01:47:15.540Z,1024.20
2019-01-02T01:47:16.140Z,1024.21
2019-01-02T01:47:16.743Z,1024.22
2019-01-02T01:47:17.342Z,1024.25
2019-01-02T01:47:17.940Z,1024.24
2019-01-02T01:48:11.421Z,1024.25
2019-01-02T01:48:11.999Z,1024.22
2019-01-02T01:48:12.640Z,1024.21
2019-01-02T01:48:13.194Z,1024.22
2019-01-02T01:48:13.793Z,1024.24
2019-01-02T01:48:14.393Z,1024.27
2019-01-02T01:48:15.002Z,1024.24
2019-01-02T01:48:15.593Z,1024.22
2019-01-02T01:49:09.073Z,1024.34
2019-01-02T01:49:09.646Z,1024.33
2019-01-02T01:49:10.253Z,1024.31
2019-01-02T01:49:10.845Z,1024.31
2019-01-02T01:49:11.445Z,1024.31
2019-01-02T01:49:12.049Z,1024.32
2019-01-02T01:49:12.645Z,1024.34
2019-01-02T01:49:13.246Z,1024.32
2019-01-02T01:50:06.725Z,1024.26
2019-01-02T01:50:07.297Z,1024.27
2019-01-02T01:50:07.897Z,1024.31
2019-01-02T01:50:08.498Z,1024.40
2019-01-02T01:50:09.097Z,1024.41
2019-01-02T01:50:09.696Z,1024.39
2019-01-02T01:50:10.299Z,1024.44
2019-01-02T01:50:10.896Z,1024.48
2019-01-02T01:51:04.377Z,1024.29
2019-01-02T01:51:04.950Z,1024.31
2019-01-02T01:51:05.549Z,1024.28
2019-01-02T01:51:06.150Z,1024.28
2019-01-02T01:51:06.748Z,1024.32
2019-01-02T01:51:07.349Z,1024.28
2019-01-02T01:51:07.948Z,1024.30
2019-01-02T01:51:08.547Z,1024.34
2019-01-02T01:52:02.028Z,1024.37
2019-01-02T01:52:02.600Z,1024.35
2019-01-02T01:52:03.200Z,1024.31
2019-01-02T01:52:03.800Z,1024.31
2019-01-02T01:52:04.401Z,1024.34
2019-01-02T01:52:05.000Z,1024.32
2019-01-02T01:52:05.599Z,1024.35
2019-01-02T01:52:06.198Z,1024.32
2019-01-02T01:52:59.679Z,1024.48
2019-01-02T01:53:00.254Z,1024.49
2019-01-02T01:53:00.852Z,1024.48
2019-01-02T01:53:01.453Z,1024.44
2019-01-02T01:53:02.052Z,1024.41
2019-01-02T01:53:02.651Z,1024.43
2019-01-02T01:53:03.250Z,1024.40
2019-01-02T01:53:03.851Z,1024.44
2019-01-02T01:53:57.331Z,1024.37
2019-01-02T01:53:57.904Z,1024.36
2019-01-02T01:53:58.503Z,1024.34
2019-01-02T01:53:59.104Z,1024.33
2019-01-02T01:53:59.703Z,1024.34
2019-01-02T01:54:00.302Z,1024.36
2019-01-02T01:54:00.906Z,1024.33
2019-01-02T01:54:01.503Z,1024.37
2019-01-02T01:54:56.005Z,1024.40
2019-01-02T01:54:56.579Z,1024.34
2019-01-02T01:54:57.178Z,1024.37
2019-01-02T01:54:57.777Z,1024.38
2019-01-02T01:54:58.379Z,1024.36
2019-01-02T01:54:58.978Z,1024.37
2019-01-02T01:54:59.577Z,1024.39
2019-01-02T01:55:00.180Z,1024.42
2019-01-02T01:55:54.684Z,1024.38
2019-01-02T01:55:55.253Z,1024.38
2019-01-02T01:55:55.854Z,1024.40
2019-01-02T01:55:56.455Z,1024.40
2019-01-02T01:55:57.053Z,1024.45
2019-01-02T01:55:57.652Z,1024.43